createdAt,value
2023-02-12T00:05:54.377Z,28.10
2023-02-12T00:27:40.273Z,29.70
2023-02-12T00:49:26.150Z,29.00
2023-02-12T01:11:15.320Z,26.40
2023-02-12T01:33:01.476Z,23.60
2023-02-12T01:54:47.879Z,29.10
2023-02-12T02:16:38.188Z,25.90
2023-02-12T02:38:33.324Z,27.20
2023-02-12T03:00:23.439Z,24.60
2023-02-12T03:22:14.215Z,23.70
2023-02-12T03:44:06.962Z,26.60
2023-02-12T04:05:53.295Z,23.90
2023-02-12T04:27:45.169Z,24.80
2023-02-12T04:49:31.310Z,28.90
2023-02-12T05:11:17.052Z,26.20
2023-02-12T05:44:38.986Z,30.40
2023-02-12T06:06:25.940Z,36.10
2023-02-12T06:28:14.288Z,32.40
2023-02-12T06:50:00.011Z,41.50
2023-02-12T07:11:45.716Z,31.70
2023-02-12T07:33:31.523Z,29.20
2023-02-12T07:55:17.750Z,34.20
2023-02-12T08:17:03.392Z,25.90
2023-02-12T08:38:49.474Z,29.50
2023-02-12T09:00:35.503Z,31.80
2023-02-12T09:22:21.275Z,31.00
2023-02-12T09:44:12.670Z,32.40
2023-02-12T10:13:37.972Z,34.10
2023-02-12T10:35:24.955Z,26.20
2023-02-12T10:57:15.753Z,30.50
2023-02-12T11:19:04.825Z,25.70
2023-02-12T11:40:57.978Z,18.70
2023-02-12T12:02:50.173Z,22.10
2023-02-12T12:24:44.728Z,23.30
2023-02-12T12:46:50.689Z,23.40
2023-02-12T13:08:47.456Z,20.30
2023-02-12T13:30:40.705Z,23.90
2023-02-12T13:52:34.729Z,21.60
2023-02-12T14:14:29.227Z,15.20
2023-02-12T14:36:21.126Z,15.50
2023-02-12T14:58:16.987Z,19.90
2023-02-12T15:20:07.236Z,18.70
2023-02-12T15:41:53.356Z,16.70
2023-02-12T16:03:41.915Z,19.30
2023-02-12T16:25:30.671Z,22.90
2023-02-12T16:47:24.001Z,32.00
2023-02-12T17:09:10.773Z,36.60
2023-02-12T17:30:57.649Z,34.70
2023-02-12T17:52:43.715Z,33.50
2023-02-12T18:14:29.472Z,30.50
2023-02-12T18:36:17.096Z,33.00
2023-02-12T18:58:02.739Z,37.30
2023-02-12T19:19:50.131Z,39.60
2023-02-12T19:41:40.952Z,38.50
2023-02-12T20:03:27.475Z,38.10
2023-02-12T20:25:13.148Z,38.70
2023-02-12T20:46:58.837Z,40.50
2023-02-12T21:08:45.262Z,45.30
2023-02-12T21:30:30.969Z,36.90
2023-02-12T22:01:14.527Z,35.30
2023-02-12T22:22:58.593Z,30.90
2023-02-12T22:44:41.730Z,32.80
2023-02-12T23:06:26.869Z,32.60
2023-02-12T23:28:09.889Z,32.30
2023-02-12T23:49:52.893Z,31.30
